Terminal Aerodrome Forecast
Issued by NWS

Home | Current Version | Previous Version | Graphics & Text | Print | Product List | Glossary On
Versions: 1 2 3 4 5 6 7 8 9 10 11 12 13 14 15
000
FTUS43 KOAX 192322
TAFCDR
TAF
KCDR 192322Z 2000/2024 03009KT 6SM -RA BR OVC020
     FM200300 VRB04KT P6SM BKN060
     FM201400 09004KT P6SM BKN150=

USA.gov is the U.S. government's official web portal to all federal, state and local government web resources and services.